Airfield :
LOGIN :

Register | Disclaimer

   EN    FR    IT 

 










Legend :    VFR   Marginal VFR   IFR   Intensive IFR   Very Intensive IFR
Visi :
Ceiling :
>= 8 km
>= 3000ft
5 to 8 km
1000 to 3000 ft
1500m to 5 km
500 to 1000 ft
800 to 1500m
200 to 500 ft
< 800m
< 200 ft
Symbols :   Thunderstorms  Fog  Heavy snow  Heavy precipitations  Wind > 20 kt
SIGMETs :     Misc.  Thunderstorms  Icing  Turbulence  Mountain Waves  Volcanic Ashes







- Airport Elevation : 681 ft
- IATA code : LBA
- Download approach charts


EGNM - Leeds Bradford

CURRENT METAR :
  • 251920Z 02013KT 350V060 1600 -DZ BR SCT002 BKN003 12/12 Q1024

EXPIRED METARs :
  • 251850Z 02010G20KT 350V060 1600 -DZ BR SCT002 BKN003 12/12 Q1024
  • 251820Z 02011KT 350V070 1600 -DZ BR SCT002 BKN003 12/12 Q1024
  • 251750Z 02010KT 350V060 1700 -DZ BR SCT002 BKN003 12/12 Q1024
  • 251720Z 03012KT 350V070 8000 -DZ SCT002 BKN005 13/12 Q1024
  • 251650Z 02010KT 350V060 9999 SCT003 BKN005 13/12 Q1023

TAF TAF EGNM
Valid from the 25 at 18:00 until the 26 at 18:00 UTC


251656Z 2518/2618 02012KT 9999 BKN006
BECMG 2518/2521 8000
TEMPO 2518/2607 4000 -RA BR BKN003
PROB30
TEMPO 2521/2607 0200 FG BKN001
BECMG 2607/2610 9999 SCT025
PROB30
TEMPO 2610/2612 6000 BKN012
ATIS : +44 113 250 9696 (x2489)
No reported NOTAMs for that airfield.



MET'MAP, your aeronautical weather chart ! - Copyright ORBIFLY December 2007 - Disclaimer

ORBIFLY MET'MAP TEAM :

Programming & Development : Alexandra Zaïnal
Concept & Development : Baudouin d'Aumeries
Co-Development & Prog : Marc-Olivier Méhu
Technical & hardware support : Manuel Goepfert

Contact : metmap@orbifly.com




SOURCES & CREDITS :

   NOAA